createdAt,value
2023-06-30T00:00:37.512Z,46.7
2023-06-30T00:15:38.284Z,44.2
2023-06-30T00:30:39.111Z,45.7
2023-06-30T00:45:39.326Z,48.2
2023-06-30T01:00:40.656Z,51.9
2023-06-30T01:01:26.718Z,55.2
2023-06-30T01:15:41.101Z,45.8
2023-06-30T01:30:41.888Z,48.8
2023-06-30T01:45:42.220Z,53.4
2023-06-30T02:00:43.172Z,52.4
2023-06-30T02:15:44.628Z,48.8
2023-06-30T02:30:44.448Z,49.9
2023-06-30T02:45:45.824Z,48.8
2023-06-30T03:00:45.432Z,46
2023-06-30T03:15:48.161Z,50.4
2023-06-30T03:30:46.625Z,47.7
2023-06-30T03:33:50.529Z,49.1
2023-06-30T03:48:51.369Z,49.9
2023-06-30T04:03:52.023Z,43.3
2023-06-30T04:18:53.916Z,45.4
2023-06-30T04:33:54.446Z,46.8
2023-06-30T04:48:55.964Z,47.7
2023-06-30T05:03:55.073Z,43.1
2023-06-30T05:18:55.536Z,41.9
2023-06-30T05:33:56.597Z,39.1
2023-06-30T05:49:03.193Z,44
2023-06-30T06:03:57.804Z,49.2
2023-06-30T06:18:58.481Z,40.8
2023-06-30T06:33:59.244Z,41.6
2023-06-30T06:49:01.692Z,39.6
2023-06-30T07:04:02.335Z,38.3
2023-06-30T07:19:05.388Z,35
2023-06-30T07:34:02.401Z,29.3
2023-06-30T07:49:02.389Z,32.2
2023-06-30T08:04:03.736Z,31.1
2023-06-30T08:19:05.113Z,48.6
2023-06-30T08:34:07.398Z,27.8
2023-06-30T08:49:05.673Z,26.3
2023-06-30T09:04:05.691Z,27.8
2023-06-30T09:19:09.596Z,24.7
2023-06-30T09:34:07.589Z,24.2
2023-06-30T09:49:07.924Z,19.5
2023-06-30T10:04:08.430Z,20.4
2023-06-30T10:19:08.874Z,26
2023-06-30T10:34:09.916Z,15.8
2023-06-30T10:49:10.668Z,17.7
2023-06-30T11:04:11.232Z,18.4
2023-06-30T11:19:13.263Z,17
2023-06-30T11:34:13.469Z,14.4
2023-06-30T11:49:15.492Z,13
2023-06-30T12:04:16.352Z,15.2
2023-06-30T12:19:14.272Z,16.7
2023-06-30T12:34:14.809Z,23.4
2023-06-30T12:49:22.245Z,24.2
2023-06-30T13:04:16.067Z,24.8
2023-06-30T13:19:17.802Z,25.1
2023-06-30T13:34:17.812Z,23.9
2023-06-30T13:49:24.282Z,23.6
2023-06-30T14:04:20.340Z,21.3
2023-06-30T14:19:20.548Z,25.4
2023-06-30T14:34:22.694Z,28.9
2023-06-30T14:49:28.468Z,27.1
2023-06-30T15:04:21.173Z,30.8
2023-06-30T15:19:25.914Z,27.3
2023-06-30T15:34:24.694Z,25.5
2023-06-30T15:49:26.225Z,29.4
2023-06-30T16:04:23.614Z,32.9
2023-06-30T16:19:25.116Z,39.1
2023-06-30T16:34:26.068Z,39.6
2023-06-30T16:49:26.913Z,34
2023-06-30T17:04:27.150Z,20.7
2023-06-30T17:19:28.703Z,24.2
2023-06-30T17:34:28.523Z,23.4
2023-06-30T17:49:28.776Z,20
2023-06-30T18:04:28.984Z,20.6
2023-06-30T18:19:31.505Z,16.6
2023-06-30T18:34:30.198Z,13.5
2023-06-30T18:49:33.053Z,8.8
2023-06-30T19:04:31.690Z,14.2
2023-06-30T19:19:34.104Z,16.3
2023-06-30T19:34:33.353Z,23.9
2023-06-30T19:49:33.826Z,18.4
2023-06-30T20:04:36.905Z,24.7
2023-06-30T20:19:34.970Z,22.6
2023-06-30T20:34:38.002Z,31.9
2023-06-30T20:49:36.178Z,32
2023-06-30T21:04:38.032Z,29.8
2023-06-30T21:19:43.113Z,28.4
2023-06-30T21:34:39.508Z,32.2
2023-06-30T21:49:40.986Z,25.2
2023-06-30T22:00:41.448Z,24.8
2023-06-30T22:15:36.402Z,27.1
2023-06-30T22:30:36.981Z,23
2023-06-30T22:45:36.331Z,20.5
2023-06-30T23:00:40.111Z,10.2
2023-06-30T23:15:40.712Z,12.5
2023-06-30T23:30:40.017Z,14.5
2023-06-30T23:45:38.603Z,13.3
